createdAt,value
2023-03-11T00:00:52.691Z,100763.31
2023-03-11T00:03:20.369Z,100762.44
2023-03-11T00:05:47.287Z,100757.31
2023-03-11T00:08:16.954Z,100769.22
2023-03-11T00:10:45.737Z,100772.63
2023-03-11T00:13:15.259Z,100775.25
2023-03-11T00:15:43.575Z,100776.09
2023-03-11T00:18:10.123Z,100776.97
2023-03-11T00:20:39.678Z,100781.25
2023-03-11T00:23:10.814Z,100776.94
2023-03-11T00:25:38.497Z,100785.53
2023-03-11T00:28:07.319Z,100786.38
2023-03-11T00:30:34.299Z,100786.38
2023-03-11T00:33:00.881Z,100784.66
2023-03-11T00:35:30.184Z,100790.72
2023-03-11T00:38:02.761Z,100797.53
2023-03-11T00:40:31.773Z,100803.56
2023-03-11T00:42:58.799Z,100810.41
2023-03-11T00:45:26.579Z,100818.06
2023-03-11T00:47:54.485Z,100810.34
2023-03-11T00:50:24.133Z,100815.50
2023-03-11T00:52:51.585Z,100817.22
2023-03-11T00:55:21.790Z,100824.00
2023-03-11T00:57:48.252Z,100822.25
2023-03-11T01:00:16.874Z,100819.69
2023-03-11T01:02:43.588Z,100833.34
2023-03-11T01:05:10.644Z,100835.06
2023-03-11T01:07:37.391Z,100835.00
2023-03-11T01:10:05.004Z,100832.44
2023-03-11T01:12:31.453Z,100836.69
2023-03-11T01:14:57.914Z,100834.13
2023-03-11T01:17:24.478Z,100847.88
2023-03-11T01:19:51.008Z,100841.03
2023-03-11T01:22:17.783Z,100844.47
2023-03-11T01:24:44.379Z,100843.63
2023-03-11T01:27:10.998Z,100847.88
2023-03-11T01:29:37.482Z,100845.25
2023-03-11T01:32:04.535Z,100849.56
2023-03-11T01:34:31.158Z,100859.00
2023-03-11T01:36:57.672Z,100853.84
2023-03-11T01:39:24.171Z,100863.25
2023-03-11T01:41:52.945Z,100851.28
2023-03-11T01:44:19.417Z,100864.97
2023-03-11T01:46:52.000Z,100868.38
2023-03-11T01:49:20.799Z,100864.97
2023-03-11T01:52:08.146Z,100849.53
2023-03-11T01:54:39.571Z,100857.25
2023-03-11T01:57:09.536Z,100852.97
2023-03-11T01:59:44.053Z,100863.25
2023-03-11T02:02:32.091Z,100861.56
2023-03-11T02:05:01.200Z,100869.22
2023-03-11T02:07:29.205Z,100864.94
2023-03-11T02:09:55.607Z,100858.94
2023-03-11T02:12:22.544Z,100871.78
2023-03-11T02:14:54.534Z,100867.50
2023-03-11T02:17:22.341Z,100864.94
2023-03-11T02:19:58.144Z,100871.78
2023-03-11T02:22:24.854Z,100871.78
2023-03-11T02:25:09.336Z,100873.47
2023-03-11T02:27:41.153Z,100881.19
2023-03-11T02:30:11.014Z,100883.81
2023-03-11T02:32:38.091Z,100879.50
2023-03-11T02:35:06.377Z,100885.53
2023-03-11T02:37:32.938Z,100884.69
2023-03-11T02:40:24.349Z,100878.69
2023-03-11T02:42:54.059Z,100874.41
2023-03-11T02:45:23.874Z,100880.44
2023-03-11T02:47:52.737Z,100885.59
2023-03-11T02:50:19.374Z,100872.00
2023-03-11T02:52:49.139Z,100877.19
2023-03-11T02:55:17.988Z,100879.88
2023-03-11T02:57:45.214Z,100880.81
2023-03-11T03:00:15.702Z,100878.38
2023-03-11T03:02:43.931Z,100888.69
2023-03-11T03:05:11.322Z,100884.53
2023-03-11T03:07:38.672Z,100899.19
2023-03-11T03:10:06.470Z,100898.44
2023-03-11T03:12:32.892Z,100891.69
2023-03-11T03:14:59.385Z,100894.28
2023-03-11T03:17:25.990Z,100903.75
2023-03-11T03:19:52.532Z,100909.78
2023-03-11T03:22:18.994Z,100907.28
2023-03-11T03:24:45.492Z,100913.31
2023-03-11T03:27:12.288Z,100910.78
2023-03-11T03:29:38.762Z,100920.22
2023-03-11T03:32:05.743Z,100919.44
2023-03-11T03:34:32.306Z,100920.31
2023-03-11T03:36:58.778Z,100922.91
2023-03-11T03:39:25.193Z,100928.03
2023-03-11T03:41:51.666Z,100934.06
2023-03-11T03:44:18.284Z,100936.63
2023-03-11T03:46:44.751Z,100940.03
2023-03-11T03:49:11.179Z,100945.16
2023-03-11T03:51:37.571Z,100949.41
2023-03-11T03:54:04.120Z,100946.84
2023-03-11T03:56:30.558Z,100953.69
2023-03-11T03:58:56.997Z,100953.66
2023-03-11T04:01:23.410Z,100959.59
2023-03-11T04:03:49.967Z,100957.88
2023-03-11T04:06:24.218Z,100966.44
2023-03-11T04:08:52.036Z,100970.66
2023-03-11T04:11:18.763Z,100973.25
2023-03-11T04:13:45.429Z,100978.41
2023-03-11T04:16:19.687Z,100971.63
2023-03-11T04:18:46.706Z,100968.22
2023-03-11T04:21:13.414Z,100970.84
2023-03-11T04:23:39.936Z,100975.19
2023-03-11T04:26:06.414Z,100974.38
2023-03-11T04:28:33.306Z,100982.09
2023-03-11T04:30:59.819Z,100978.75
2023-03-11T04:33:26.380Z,100978.84
2023-03-11T04:35:52.915Z,100974.59
2023-03-11T04:38:19.397Z,100977.16
2023-03-11T04:40:45.897Z,100978.06
2023-03-11T04:43:12.454Z,100984.91
2023-03-11T04:45:40.083Z,100991.78
2023-03-11T04:48:06.765Z,100992.66
2023-03-11T04:50:33.285Z,100987.53
2023-03-11T04:52:59.769Z,100995.25
2023-03-11T04:55:26.461Z,101007.25
2023-03-11T04:57:52.921Z,101001.25
2023-03-11T05:00:24.605Z,100998.72
2023-03-11T05:02:51.447Z,101009.84
2023-03-11T05:05:21.385Z,101003.88
2023-03-11T05:07:48.569Z,101005.63
2023-03-11T05:10:22.139Z,101003.94
2023-03-11T05:12:52.037Z,101001.38
2023-03-11T05:15:19.048Z,100998.84
2023-03-11T05:17:45.884Z,100995.44
2023-03-11T05:20:14.374Z,100993.75
2023-03-11T05:22:41.953Z,101001.47
2023-03-11T05:25:08.941Z,100999.78
2023-03-11T05:27:35.605Z,101012.59
2023-03-11T05:30:02.063Z,101021.16
2023-03-11T05:32:28.525Z,101022.00
2023-03-11T05:34:54.993Z,101030.56
2023-03-11T05:37:21.445Z,101022.03
2023-03-11T05:39:47.914Z,101036.56
2023-03-11T05:42:14.461Z,101031.47
2023-03-11T05:44:41.900Z,101035.78
2023-03-11T05:47:08.344Z,101040.91
2023-03-11T05:49:34.969Z,101041.78
2023-03-11T05:52:01.436Z,101046.03
2023-03-11T05:54:27.932Z,101038.38
2023-03-11T05:56:55.488Z,101040.09
2023-03-11T05:59:21.922Z,101048.66
2023-03-11T06:01:48.308Z,101049.50
2023-03-11T06:04:14.929Z,101053.81
2023-03-11T06:06:42.498Z,101054.66
2023-03-11T06:09:15.699Z,101069.19
2023-03-11T06:11:42.801Z,101063.19
2023-03-11T06:14:14.383Z,101064.06
2023-03-11T06:16:41.631Z,101068.28
2023-03-11T06:19:08.283Z,101063.19
2023-03-11T06:21:34.901Z,101074.25
2023-03-11T06:24:01.398Z,101073.38
2023-03-11T06:26:28.326Z,101076.81
2023-03-11T06:28:54.906Z,101079.38
2023-03-11T06:31:28.944Z,101083.63
2023-03-11T06:33:56.243Z,101087.94
2023-03-11T06:36:23.616Z,101097.31
2023-03-11T06:38:52.575Z,101097.28
2023-03-11T06:41:19.257Z,101091.31
2023-03-11T06:43:45.651Z,101096.41
2023-03-11T06:46:18.037Z,101101.53
2023-03-11T06:48:46.257Z,101104.06
2023-03-11T06:51:13.208Z,101100.66
2023-03-11T06:53:40.117Z,101095.50
2023-03-11T06:56:09.300Z,101105.69
2023-03-11T06:58:37.161Z,101103.13
2023-03-11T07:01:06.966Z,101102.19
2023-03-11T07:03:33.857Z,101103.03
2023-03-11T07:06:00.374Z,101110.69
2023-03-11T07:08:26.968Z,101112.41
2023-03-11T07:11:20.376Z,101116.63
2023-03-11T07:13:47.640Z,101134.53
2023-03-11T07:16:17.156Z,101139.59
2023-03-11T07:18:46.260Z,101133.53
2023-03-11T07:21:15.223Z,101133.47
2023-03-11T07:23:42.361Z,101140.25
2023-03-11T07:26:14.296Z,101132.50
2023-03-11T07:28:41.736Z,101145.25
2023-03-11T07:31:14.287Z,101145.19
2023-03-11T07:33:40.748Z,101147.63
2023-03-11T07:36:10.023Z,101152.69
2023-03-11T07:38:36.992Z,101152.59
2023-03-11T07:41:04.273Z,101153.34
2023-03-11T07:43:30.948Z,101150.66
2023-03-11T07:46:06.753Z,101148.00
2023-03-11T07:48:33.905Z,101141.03
2023-03-11T07:51:05.642Z,101141.75
2023-03-11T07:53:32.706Z,101151.09
2023-03-11T07:55:59.814Z,101156.97
2023-03-11T07:58:27.167Z,101163.66
2023-03-11T08:00:55.329Z,101166.09
2023-03-11T08:03:21.834Z,101167.69
2023-03-11T08:05:48.300Z,101172.69
2023-03-11T08:08:14.750Z,101181.19
2023-03-11T08:10:41.221Z,101181.00
2023-03-11T08:13:08.825Z,101180.81
2023-03-11T08:15:37.047Z,101182.34
2023-03-11T08:18:04.063Z,101188.19
2023-03-11T08:20:30.721Z,101185.56
2023-03-11T08:22:58.481Z,101183.75
2023-03-11T08:25:25.304Z,101183.66
2023-03-11T08:27:51.733Z,101180.94
2023-03-11T08:30:18.554Z,101187.69
2023-03-11T08:32:45.118Z,101190.16
2023-03-11T08:35:11.625Z,101190.75
2023-03-11T08:37:38.226Z,101198.38
2023-03-11T08:40:05.589Z,101193.09
2023-03-11T08:42:32.144Z,101189.53
2023-03-11T08:44:58.986Z,101186.81
2023-03-11T08:47:25.565Z,101194.34
2023-03-11T08:49:52.077Z,101189.09
2023-03-11T08:52:18.552Z,101189.91
2023-03-11T08:54:45.021Z,101190.69
2023-03-11T08:57:13.221Z,101190.63
2023-03-11T08:59:39.745Z,101197.31
2023-03-11T09:02:06.230Z,101200.47
2023-03-11T09:04:32.693Z,101207.28
2023-03-11T09:06:59.227Z,101222.50
2023-03-11T09:09:25.625Z,101223.84
2023-03-11T09:11:52.064Z,101226.09
2023-03-11T09:14:18.675Z,101219.00
2023-03-11T09:16:45.190Z,101229.38
2023-03-11T09:19:11.643Z,101227.06
2023-03-11T09:21:38.238Z,101234.09
2023-03-11T09:24:05.626Z,101239.38
2023-03-11T09:26:32.678Z,101235.91
2023-03-11T09:28:59.219Z,101234.88
2023-03-11T09:31:25.824Z,101238.88
2023-03-11T09:33:52.831Z,101241.09
2023-03-11T09:36:21.311Z,101231.38
2023-03-11T09:38:48.876Z,101224.56
2023-03-11T09:41:18.107Z,101231.44
2023-03-11T09:43:56.693Z,101222.84
2023-03-11T09:46:29.317Z,101226.69
2023-03-11T09:49:09.533Z,101226.19
2023-03-11T09:51:41.961Z,101227.53
2023-03-11T09:54:13.138Z,101230.03
2023-03-11T09:56:44.428Z,101242.88
2023-03-11T09:59:30.274Z,101235.06
2023-03-11T10:01:56.911Z,101227.81
2023-03-11T10:04:42.721Z,101229.03
2023-03-11T10:07:23.596Z,101234.78
2023-03-11T10:09:56.697Z,101226.66
2023-03-11T10:12:44.487Z,101226.03
2023-03-11T10:15:11.966Z,101231.81
2023-03-11T10:18:12.420Z,101234.38
2023-03-11T10:21:03.386Z,101236.09
2023-03-11T10:23:55.667Z,101237.66
2023-03-11T10:26:37.118Z,101238.16
2023-03-11T10:29:41.387Z,101243.84
2023-03-11T10:32:24.701Z,101244.88
2023-03-11T10:35:25.252Z,101234.50
2023-03-11T10:37:56.895Z,101239.22
2023-03-11T10:40:31.332Z,101236.91
2023-03-11T10:43:03.193Z,101236.84
2023-03-11T10:45:36.669Z,101245.47
2023-03-11T10:48:07.864Z,101235.81
2023-03-11T10:50:36.513Z,101241.44
2023-03-11T10:53:19.044Z,101243.09
2023-03-11T10:55:54.675Z,101234.63
2023-03-11T10:58:26.977Z,101229.09
2023-03-11T11:01:07.982Z,101240.94
2023-03-11T11:03:36.375Z,101238.34
2023-03-11T11:06:06.484Z,101246.75
2023-03-11T11:08:33.889Z,101238.09
2023-03-11T11:11:02.796Z,101232.22
2023-03-11T11:13:37.227Z,101244.53
2023-03-11T11:16:20.265Z,101248.28
2023-03-11T11:19:03.784Z,101247.19
2023-03-11T11:21:49.780Z,101239.28
2023-03-11T11:24:27.541Z,101240.97
2023-03-11T11:27:16.824Z,101238.19
2023-03-11T11:29:43.751Z,101247.91
2023-03-11T11:32:23.657Z,101247.81
2023-03-11T11:34:59.497Z,101247.34
2023-03-11T11:37:31.957Z,101249.50
2023-03-11T11:40:11.252Z,101249.81
2023-03-11T11:42:40.688Z,101237.78
2023-03-11T11:46:03.459Z,101236.66
2023-03-11T11:48:44.849Z,101241.75
2023-03-11T11:51:49.599Z,101241.41
2023-03-11T11:54:34.823Z,101245.00
2023-03-11T11:57:10.321Z,101242.72
2023-03-11T11:59:36.925Z,101244.22
2023-03-11T12:02:09.405Z,101242.69
2023-03-11T12:05:02.415Z,101244.81
2023-03-11T12:07:38.493Z,101248.19
2023-03-11T12:10:29.355Z,101249.59
2023-03-11T12:13:24.943Z,101246.59
2023-03-11T12:16:02.216Z,101234.31
2023-03-11T12:18:41.354Z,101239.63
2023-03-11T12:21:23.749Z,101236.94
2023-03-11T12:24:04.983Z,101225.28
2023-03-11T12:26:38.078Z,101215.53
2023-03-11T12:29:16.189Z,101218.66
2023-03-11T12:31:44.237Z,101219.50
2023-03-11T12:34:12.635Z,101216.81
2023-03-11T12:36:41.103Z,101223.69
2023-03-11T12:39:22.035Z,101214.22
2023-03-11T12:41:48.461Z,101224.22
2023-03-11T12:44:22.444Z,101218.78
2023-03-11T12:46:57.979Z,101222.19
2023-03-11T12:49:31.903Z,101223.38
2023-03-11T12:52:05.764Z,101220.22
2023-03-11T12:54:44.925Z,101213.44
2023-03-11T12:57:17.791Z,101216.38
2023-03-11T12:59:53.396Z,101224.81
2023-03-11T13:02:57.633Z,101222.06
2023-03-11T13:05:31.737Z,101221.72
2023-03-11T13:08:15.701Z,101228.03
2023-03-11T13:10:44.511Z,101220.00
2023-03-11T13:13:29.718Z,101214.63
2023-03-11T13:15:57.422Z,101223.34
2023-03-11T13:18:24.810Z,101215.84
2023-03-11T13:21:02.108Z,101216.91
2023-03-11T13:23:42.061Z,101217.59
2023-03-11T13:26:36.093Z,101213.00
2023-03-11T13:29:29.405Z,101219.97
2023-03-11T13:32:17.561Z,101223.94
2023-03-11T13:35:21.474Z,101219.47
2023-03-11T13:38:34.628Z,101209.09
2023-03-11T13:41:03.171Z,101212.31
2023-03-11T13:43:30.188Z,101204.31
2023-03-11T13:46:01.839Z,101219.09
2023-03-11T13:48:31.442Z,101216.81
2023-03-11T13:51:01.966Z,101227.84
2023-03-11T13:53:42.396Z,101218.19
2023-03-11T13:56:27.969Z,101220.44
2023-03-11T13:58:54.741Z,101216.56
2023-03-11T14:01:21.408Z,101218.03
2023-03-11T14:03:48.503Z,101233.19
2023-03-11T14:06:19.773Z,101225.41
2023-03-11T14:08:57.656Z,101227.78
2023-03-11T14:11:31.794Z,101224.72
2023-03-11T14:13:58.620Z,101230.59
2023-03-11T14:16:43.791Z,101234.56
2023-03-11T14:19:18.352Z,101242.56
2023-03-11T14:21:46.906Z,101236.13
2023-03-11T14:24:19.998Z,101240.19
2023-03-11T14:26:49.854Z,101239.16
2023-03-11T14:29:19.800Z,101241.44
2023-03-11T14:31:47.409Z,101243.28
2023-03-11T14:34:22.844Z,101247.78
2023-03-11T14:36:52.527Z,101246.16
2023-03-11T14:39:34.306Z,101247.72
2023-03-11T14:42:26.032Z,101247.31
2023-03-11T14:45:05.449Z,101244.16
2023-03-11T14:47:39.117Z,101248.31
2023-03-11T14:50:17.871Z,101248.94
2023-03-11T14:52:47.711Z,101251.66
2023-03-11T14:55:20.055Z,101247.88
2023-03-11T14:58:03.199Z,101238.41
2023-03-11T15:00:36.718Z,101248.38
2023-03-11T15:03:12.631Z,101241.66
2023-03-11T15:05:54.994Z,101240.56
2023-03-11T15:08:26.152Z,101248.69
2023-03-11T15:11:04.804Z,101247.75
2023-03-11T15:13:31.895Z,101252.88
2023-03-11T15:16:00.569Z,101260.03
2023-03-11T15:18:33.433Z,101250.66
2023-03-11T15:21:19.365Z,101251.06
2023-03-11T15:24:02.595Z,101252.75
2023-03-11T15:26:32.000Z,101248.78
2023-03-11T15:29:13.915Z,101243.72
2023-03-11T15:31:44.978Z,101238.97
2023-03-11T15:34:17.818Z,101236.69
2023-03-11T15:36:55.934Z,101230.59
2023-03-11T15:39:31.546Z,101233.34
2023-03-11T15:42:06.016Z,101240.16
2023-03-11T15:44:43.706Z,101236.94
2023-03-11T15:47:16.025Z,101234.56
2023-03-11T15:49:42.827Z,101236.66
2023-03-11T15:52:09.796Z,101234.97
2023-03-11T15:54:36.762Z,101239.13
2023-03-11T15:57:07.429Z,101235.94
2023-03-11T15:59:35.747Z,101240.19
2023-03-11T16:02:02.311Z,101240.13
2023-03-11T16:04:29.016Z,101240.47
2023-03-11T16:07:07.494Z,101233.72
2023-03-11T16:09:35.509Z,101230.06
2023-03-11T16:12:08.528Z,101234.31
2023-03-11T16:14:35.027Z,101240.28
2023-03-11T16:17:01.457Z,101234.22
2023-03-11T16:19:27.923Z,101240.38
2023-03-11T16:21:54.389Z,101232.81
2023-03-11T16:24:24.010Z,101239.13
2023-03-11T16:26:52.608Z,101238.50
2023-03-11T16:29:20.301Z,101242.09
2023-03-11T16:31:47.149Z,101238.75
2023-03-11T16:34:13.690Z,101236.38
2023-03-11T16:36:40.252Z,101234.78
2023-03-11T16:39:06.728Z,101233.19
2023-03-11T16:41:44.665Z,101243.06
2023-03-11T16:44:12.117Z,101241.44
2023-03-11T16:46:38.816Z,101239.88
2023-03-11T16:49:05.983Z,101245.13
2023-03-11T16:51:32.623Z,101248.81
2023-03-11T16:53:59.605Z,101240.50
2023-03-11T16:56:26.399Z,101254.44
2023-03-11T16:58:52.900Z,101257.03
2023-03-11T17:01:21.627Z,101252.94
2023-03-11T17:03:52.150Z,101249.78
2023-03-11T17:06:19.567Z,101252.56
2023-03-11T17:08:50.871Z,101254.53
2023-03-11T17:11:24.617Z,101252.22
2023-03-11T17:13:51.101Z,101244.69
2023-03-11T17:16:18.247Z,101254.31
2023-03-11T17:18:44.767Z,101252.88
2023-03-11T17:21:14.851Z,101250.50
2023-03-11T17:23:41.957Z,101247.28
2023-03-11T17:26:11.491Z,101252.72
2023-03-11T17:28:40.028Z,101253.84
2023-03-11T17:31:15.322Z,101253.06
2023-03-11T17:33:41.963Z,101254.06
2023-03-11T17:36:13.179Z,101255.28
2023-03-11T17:38:39.772Z,101265.84
2023-03-11T17:41:11.208Z,101266.09
2023-03-11T17:43:37.754Z,101270.66
2023-03-11T17:46:10.872Z,101272.59
2023-03-11T17:48:40.391Z,101275.34
2023-03-11T17:51:12.289Z,101268.69
2023-03-11T17:53:40.529Z,101270.56
2023-03-11T17:56:07.953Z,101270.72
2023-03-11T17:58:35.764Z,101281.13
2023-03-11T18:01:07.653Z,101278.72
2023-03-11T18:03:34.158Z,101278.84
2023-03-11T18:06:03.886Z,101283.38
2023-03-11T18:08:31.029Z,101283.44
2023-03-11T18:11:09.701Z,101296.47
2023-03-11T18:13:38.058Z,101287.91
2023-03-11T18:16:11.264Z,101292.28
2023-03-11T18:18:38.202Z,101306.13
2023-03-11T18:21:11.236Z,101301.00
2023-03-11T18:23:39.053Z,101295.00
2023-03-11T18:26:07.705Z,101300.16
2023-03-11T18:28:35.435Z,101301.13
2023-03-11T18:31:11.956Z,101306.34
2023-03-11T18:33:39.073Z,101301.16
2023-03-11T18:36:17.673Z,101302.00
2023-03-11T18:38:44.590Z,101314.88
2023-03-11T18:41:11.222Z,101311.44
2023-03-11T18:43:38.324Z,101307.13
2023-03-11T18:46:14.737Z,101307.91
2023-03-11T18:48:41.740Z,101313.09
2023-03-11T18:51:09.342Z,101311.38
2023-03-11T18:53:36.495Z,101305.50
2023-03-11T18:56:10.004Z,101302.09
2023-03-11T18:58:36.613Z,101308.13
2023-03-11T19:01:08.612Z,101316.75
2023-03-11T19:03:35.580Z,101316.75
2023-03-11T19:06:02.418Z,101306.47
2023-03-11T19:08:29.103Z,101313.47
2023-03-11T19:10:55.939Z,101317.00
2023-03-11T19:13:22.603Z,101306.75
2023-03-11T19:15:49.209Z,101305.97
2023-03-11T19:18:15.852Z,101312.78
2023-03-11T19:20:42.399Z,101312.81
2023-03-11T19:23:09.290Z,101309.41
2023-03-11T19:25:36.239Z,101306.03
2023-03-11T19:28:02.924Z,101308.69
2023-03-11T19:30:29.518Z,101299.34
2023-03-11T19:32:56.004Z,101304.63
2023-03-11T19:35:23.650Z,101301.25
2023-03-11T19:37:50.594Z,101301.31
2023-03-11T19:40:17.819Z,101305.75
2023-03-11T19:42:44.349Z,101302.41
2023-03-11T19:45:11.642Z,101300.84
2023-03-11T19:47:38.986Z,101305.25
2023-03-11T19:50:06.257Z,101306.22
2023-03-11T19:52:34.688Z,101304.56
2023-03-11T19:55:01.128Z,101307.25
2023-03-11T19:57:27.590Z,101305.69
2023-03-11T19:59:55.301Z,101310.03
2023-03-11T20:02:21.877Z,101306.66
2023-03-11T20:04:48.492Z,101311.00
2023-03-11T20:07:14.945Z,101311.91
2023-03-11T20:09:41.505Z,101305.09
2023-03-11T20:12:08.212Z,101310.31
2023-03-11T20:14:34.665Z,101304.34
2023-03-11T20:17:01.165Z,101310.53
2023-03-11T20:19:27.792Z,101309.00
2023-03-11T20:21:54.291Z,101314.28
2023-03-11T20:24:20.867Z,101319.47
2023-03-11T20:26:49.314Z,101316.94
2023-03-11T20:29:17.269Z,101317.78
2023-03-11T20:31:44.667Z,101316.06
2023-03-11T20:34:12.158Z,101317.81
2023-03-11T20:36:38.900Z,101316.94
2023-03-11T20:39:09.906Z,101316.16
2023-03-11T20:41:39.697Z,101311.88
2023-03-11T20:44:08.349Z,101314.47
2023-03-11T20:46:35.030Z,101313.56
2023-03-11T20:49:02.189Z,101309.31
2023-03-11T20:51:28.701Z,101313.66
2023-03-11T20:53:55.351Z,101321.38
2023-03-11T20:56:24.922Z,101311.97
2023-03-11T20:58:53.109Z,101311.06
2023-03-11T21:01:22.995Z,101311.97
2023-03-11T21:03:49.918Z,101316.22
2023-03-11T21:06:29.382Z,101309.38
2023-03-11T21:08:57.400Z,101314.50
2023-03-11T21:11:25.300Z,101309.34
2023-03-11T21:13:52.054Z,101316.22
2023-03-11T21:16:18.649Z,101311.19
2023-03-11T21:18:48.672Z,101314.69
2023-03-11T21:21:17.628Z,101306.19
2023-03-11T21:23:45.183Z,101310.50
2023-03-11T21:26:14.095Z,101304.44
2023-03-11T21:28:42.320Z,101306.94
2023-03-11T21:31:17.569Z,101313.75
2023-03-11T21:33:44.985Z,101310.31
2023-03-11T21:36:13.286Z,101305.13
2023-03-11T21:38:40.538Z,101304.34
2023-03-11T21:41:10.146Z,101302.75
2023-03-11T21:43:38.175Z,101295.94
2023-03-11T21:46:06.572Z,101299.44
2023-03-11T21:48:34.178Z,101301.16
2023-03-11T21:51:01.540Z,101294.41
2023-03-11T21:53:29.292Z,101291.81
2023-03-11T21:55:55.798Z,101290.06
2023-03-11T21:58:22.948Z,101298.63
2023-03-11T22:00:49.599Z,101296.09
2023-03-11T22:03:16.550Z,101293.59
2023-03-11T22:05:43.208Z,101296.31
2023-03-11T22:08:10.097Z,101291.97
2023-03-11T22:10:37.192Z,101293.69
2023-03-11T22:13:04.097Z,101295.41
2023-03-11T22:15:30.905Z,101300.56
2023-03-11T22:17:57.491Z,101298.94
2023-03-11T22:20:23.956Z,101298.13
2023-03-11T22:22:50.365Z,101297.34
2023-03-11T22:25:16.851Z,101293.88
2023-03-11T22:27:43.228Z,101293.94
2023-03-11T22:30:10.265Z,101286.25
2023-03-11T22:32:36.738Z,101284.59
2023-03-11T22:35:03.356Z,101282.03
2023-03-11T22:37:29.756Z,101289.72
2023-03-11T22:39:56.192Z,101291.41
2023-03-11T22:42:22.582Z,101286.28
2023-03-11T22:44:49.172Z,101286.28
2023-03-11T22:47:15.606Z,101282.06
2023-03-11T22:49:42.596Z,101275.22
2023-03-11T22:52:09.132Z,101278.69
2023-03-11T22:54:37.087Z,101274.44
2023-03-11T22:57:03.720Z,101271.88
2023-03-11T22:59:30.966Z,101272.75
2023-03-11T23:01:57.543Z,101273.59
2023-03-11T23:04:23.980Z,101280.44
2023-03-11T23:06:50.475Z,101274.44
2023-03-11T23:09:16.962Z,101276.13
2023-03-11T23:11:43.379Z,101270.94
2023-03-11T23:14:09.798Z,101267.53
2023-03-11T23:16:36.229Z,101262.34
2023-03-11T23:19:02.681Z,101256.38
2023-03-11T23:21:31.768Z,101258.91
2023-03-11T23:24:00.712Z,101258.94
2023-03-11T23:26:29.120Z,101256.38
2023-03-11T23:28:56.588Z,101265.81
2023-03-11T23:31:25.195Z,101260.63
2023-03-11T23:33:51.938Z,101253.69
2023-03-11T23:36:20.990Z,101247.63
2023-03-11T23:38:49.612Z,101253.63
2023-03-11T23:41:19.014Z,101253.63
2023-03-11T23:43:46.122Z,101262.22
2023-03-11T23:46:13.286Z,101252.78
2023-03-11T23:48:40.797Z,101256.16
2023-03-11T23:51:09.195Z,101251.00
2023-03-11T23:53:36.388Z,101240.75
2023-03-11T23:56:09.280Z,101235.56
2023-03-11T23:58:35.813Z,101238.16
